Aérodrome :
LOGIN :

S'inscrire | Disclaimer

   EN    FR    IT 

 










Légende :    VFR   VFR Marginal   IFR   IFR Intensif   IFR Très Intensif
Visi : 
Plafond : 
>= 8 km
>= 3000ft
5 à 8 km
1000 à 3000 ft
1500m à 5 km
500 à 1000 ft
800 à 1500m
200 à 500 ft
< 800m
< 200 ft
Symboles :   Orages  Brouillard  Fortes neiges  Fortes précipitations  Vent > 20 kt
SIGMETs :   Divers  Orages  Givrage  Turbulence  Onde Orograph.  Cendres Volcan.






- Altitude de l'aérodrome : 245 ft


ETHS - Fassberg

DERNIER METAR :
  • 051920Z 25009KT 7000 BKN007 01/M00 Q1015 GRN GRN TEMPO YLO

METARs EXPIRÉS :
  • 051853Z 25009KT 7000 BKN007 01/M00 Q1016 GRN GRN TEMPO YLO
  • 051820Z 26012KT 6000 BKN005 01/M00 Q1016 YLO YLO
  • 051800Z 26015KT 6000 OVC003 01/00 Q1016 YLO YLO
  • 051738Z 25013KT 5000 BR OVC002 02/01 Q1016 AMB YLO
  • 051720Z 25011KT 6000 OVC005 03/01 Q1016 YLO YLO
  • 051649Z 24010KT 7000 OVC009 03/01 Q1016 GRN GRN TEMPO YLO

TAF TAF ETHS
Valide du 05 à 18h jusqu'au 06 à 03h UTC


051719Z 0518/0603 24010KT 5000 BR OVC004



MET'MAP, la Météo Aéronautique d'un coup d'oeil ! - Copyright ORBIFLY Décembre 2007 - Disclaimer

ORBIFLY MET'MAP TEAM :

Programmation & Développement : Alexandra Zaïnal
Sur une idée originale de : Baudouin d'Aumeries
Assistance à la programmation : Marc-Olivier Méhu
Soutien technique & logistique : Manuel Goepfert

Contact : metmap@orbifly.com




SOURCES & CREDITS :

   NOAA